KPRO/PRO METAR and TAF weather

Enter ICAO airport designator
Station Type Date Time Source
KPRO METAR 2020/03/31 09:55 UTC NOAA

KPRO 310955Z AUTO 36004KT 10SM CLR 03/00 A3009 RMK AO2 T00311005


Station Type Date Time Source
KPRO Decoded METAR 2020/03/31 09:55 UTC NOAA

Station name not available
Mar 31, 2020 - 05:55 AM EDT / 2020.03.31 0955 UTC
Wind: from the N (360 degrees) at 5 MPH (4 KT):0
Visibility: 10 mile(s):0
Sky conditions: clear
Temperature: 37.6 F (3.1 C)
Dew Point: 31.1 F (-0.5 C)
Relative Humidity: 77%
Pressure (altimeter): 30.09 in. Hg (1018 hPa)
ob: KPRO 310955Z AUTO 36004KT 10SM CLR 03/00 A3009 RMK AO2 T00311005
cycle: 10

Station Type Date Time Source
KPRO TAF UTC NOAA

Error!

Example: see airport list